Time;durP1;ratioP1;P1;durP2;ratioP2;P2;SDS_P1;SDS_P2;PMS_P1;PMS_P2;Temp;Humidity;BMP_temperature;BMP_pressure;BME280_temperature;BME280_humidity;BME280_pressure;Samples;Min_cycle;Max_cycle;Signal;HPM_P1;HPM_P2
2023/03/21 00:01:19;;;;;;;6.15;2.67;;;;;;;;;;5112136;28;20046;-64
2023/03/21 00:03:46;;;;;;;7.07;3.15;;;;;;;;;;5112592;28;20103;-64
2023/03/21 00:06:13;;;;;;;6.65;2.95;;;;;;;;;;5112204;28;20026;-64
2023/03/21 00:08:39;;;;;;;4.97;2.55;;;;;;;;;;5111592;28;20560;-64
2023/03/21 00:11:08;;;;;;;4.35;2.20;;;;;;;;;;5112227;28;20073;-64
2023/03/21 00:13:37;;;;;;;7.43;2.20;;;;;;;;;;5111958;28;20031;-63
2023/03/21 00:16:08;;;;;;;4.47;2.58;;;;;;;;;;5111949;28;20035;-63
2023/03/21 00:18:41;;;;;;;5.20;2.22;;;;;;;;;;5102322;28;20032;-63
2023/03/21 00:21:07;;;;;;;5.18;2.38;;;;;;;;;;5091625;28;20028;-63
2023/03/21 00:23:34;;;;;;;5.63;2.90;;;;;;;;;;5091532;28;20396;-63
2023/03/21 00:26:00;;;;;;;6.38;2.60;;;;;;;;;;5091647;28;20472;-63
2023/03/21 00:28:26;;;;;;;4.75;2.47;;;;;;;;;;5091374;28;20050;-63
2023/03/21 00:30:58;;;;;;;4.43;2.65;;;;;;;;;;5091437;28;20024;-63
2023/03/21 00:33:25;;;;;;;4.75;2.15;;;;;;;;;;5091174;28;20072;-63
2023/03/21 00:35:52;;;;;;;5.22;2.42;;;;;;;;;;5091500;28;20036;-63
2023/03/21 00:38:18;;;;;;;6.50;2.60;;;;;;;;;;5091757;28;20092;-63
2023/03/21 00:40:44;;;;;;;6.07;2.35;;;;;;;;;;5091419;28;20407;-63
2023/03/21 00:43:16;;;;;;;5.55;2.83;;;;;;;;;;5091420;28;20024;-63
2023/03/21 00:45:42;;;;;;;6.35;2.75;;;;;;;;;;5091014;28;20581;-63
2023/03/21 00:48:08;;;;;;;6.38;2.88;;;;;;;;;;5111741;28;20028;-63
2023/03/21 00:50:35;;;;;;;4.95;2.33;;;;;;;;;;5111455;28;20027;-63
2023/03/21 00:53:01;;;;;;;3.67;2.10;;;;;;;;;;5111669;28;20016;-62
2023/03/21 00:55:27;;;;;;;6.97;2.92;;;;;;;;;;5111416;28;20047;-63
2023/03/21 00:57:53;;;;;;;7.53;2.38;;;;;;;;;;5111468;28;20384;-63
2023/03/21 01:00:19;;;;;;;5.05;2.30;;;;;;;;;;5111073;28;20081;-62
2023/03/21 01:02:55;;;;;;;6.40;2.75;;;;;;;;;;5091506;28;20044;-63
2023/03/21 01:08:11;;;;;;;5.75;2.47;;;;;;;;;;5091302;28;20400;-63
2023/03/21 01:10:41;;;;;;;4.60;2.22;;;;;;;;;;5089414;28;20032;-63
2023/03/21 01:13:07;;;;;;;4.53;2.60;;;;;;;;;;5090829;28;20567;-63
2023/03/21 01:15:34;;;;;;;5.00;2.55;;;;;;;;;;5090760;28;20040;-63
2023/03/21 01:18:00;;;;;;;6.85;2.90;;;;;;;;;;5091167;28;20016;-62
2023/03/21 01:20:26;;;;;;;6.85;2.40;;;;;;;;;;5106549;28;20031;-63
2023/03/21 01:22:52;;;;;;;5.20;2.03;;;;;;;;;;5111341;28;20055;-62
2023/03/21 01:25:18;;;;;;;3.33;2.10;;;;;;;;;;5111645;28;20058;-63
2023/03/21 01:27:44;;;;;;;6.05;2.28;;;;;;;;;;5111744;28;20030;-63
2023/03/21 01:30:11;;;;;;;5.03;2.75;;;;;;;;;;5111333;28;20076;-63
2023/03/21 01:32:37;;;;;;;4.28;2.25;;;;;;;;;;5105550;28;20117;-63
2023/03/21 01:35:03;;;;;;;5.70;2.38;;;;;;;;;;5090758;28;20501;-63
2023/03/21 01:37:30;;;;;;;4.15;2.45;;;;;;;;;;5090656;28;20028;-63
2023/03/21 01:39:56;;;;;;;5.32;2.70;;;;;;;;;;5090826;28;20106;-63
2023/03/21 01:42:22;;;;;;;5.32;2.55;;;;;;;;;;5090569;28;20170;-63
2023/03/21 01:44:58;;;;;;;5.53;2.45;;;;;;;;;;5090921;28;20069;-64
2023/03/21 01:47:25;;;;;;;6.95;2.55;;;;;;;;;;5090392;28;20560;-63
2023/03/21 01:49:53;;;;;;;6.53;2.50;;;;;;;;;;5090822;28;20146;-63
2023/03/21 01:52:25;;;;;;;5.20;2.60;;;;;;;;;;5090495;28;20028;-63
2023/03/21 01:54:53;;;;;;;5.03;2.42;;;;;;;;;;5090759;28;20028;-63
2023/03/21 01:57:31;;;;;;;4.70;2.25;;;;;;;;;;5098078;28;20026;-63
2023/03/21 01:59:57;;;;;;;4.30;2.03;;;;;;;;;;5114845;28;20042;-63
2023/03/21 02:02:27;;;;;;;5.53;2.55;;;;;;;;;;5114604;28;20043;-63
2023/03/21 02:04:57;;;;;;;4.97;2.13;;;;;;;;;;5114735;28;20030;-62
2023/03/21 02:07:27;;;;;;;4.90;2.28;;;;;;;;;;5114400;28;20024;-63
2023/03/21 02:09:54;;;;;;;5.32;2.70;;;;;;;;;;5114506;28;20024;-63
2023/03/21 02:12:20;;;;;;;4.40;2.40;;;;;;;;;;5112069;28;20468;-62
2023/03/21 02:14:47;;;;;;;4.53;2.10;;;;;;;;;;5114550;27;20038;-62
2023/03/21 02:17:32;;;;;;;5.97;2.92;;;;;;;;;;5114326;28;20050;-65
2023/03/21 02:20:20;;;;;;;5.32;3.00;;;;;;;;;;5114361;28;20031;-62
2023/03/21 02:23:05;;;;;;;3.78;2.15;;;;;;;;;;5114438;28;20055;-62
2023/03/21 02:25:31;;;;;;;5.03;2.45;;;;;;;;;;5113932;28;20432;-62
2023/03/21 02:28:01;;;;;;;5.25;2.20;;;;;;;;;;5112425;28;20114;-62
2023/03/21 02:30:42;;;;;;;5.43;2.50;;;;;;;;;;5114040;28;20111;-62
2023/03/21 02:33:08;;;;;;;4.93;2.47;;;;;;;;;;5114058;28;20024;-62
2023/03/21 02:35:40;;;;;;;5.47;2.65;;;;;;;;;;5113587;28;20035;-61
2023/03/21 02:38:20;;;;;;;5.30;2.58;;;;;;;;;;5113936;28;20030;-62
2023/03/21 02:40:53;;;;;;;7.28;3.28;;;;;;;;;;5107584;28;20130;-62
2023/03/21 02:43:36;;;;;;;4.82;2.80;;;;;;;;;;5093712;28;20032;-61
2023/03/21 02:46:20;;;;;;;5.75;2.70;;;;;;;;;;5093312;28;20032;-62
2023/03/21 02:49:06;;;;;;;5.65;2.53;;;;;;;;;;5093804;28;20051;-63
2023/03/21 02:51:34;;;;;;;5.55;2.78;;;;;;;;;;5092891;28;20028;-63
2023/03/21 02:54:03;;;;;;;5.07;2.67;;;;;;;;;;5093251;28;20519;-62
2023/03/21 02:56:30;;;;;;;5.00;2.53;;;;;;;;;;5091251;28;20407;-63
2023/03/21 02:58:56;;;;;;;5.22;3.05;;;;;;;;;;5093024;28;20027;-63
2023/03/21 03:01:24;;;;;;;4.22;2.65;;;;;;;;;;5092978;28;20442;-61
2023/03/21 03:03:50;;;;;;;5.53;2.20;;;;;;;;;;5093096;28;20502;-62
2023/03/21 03:06:25;;;;;;;6.25;2.42;;;;;;;;;;5093472;28;20032;-60
2023/03/21 03:09:06;;;;;;;4.17;2.40;;;;;;;;;;5092153;28;20084;-62
2023/03/21 03:11:40;;;;;;;4.03;2.30;;;;;;;;;;5092223;28;20063;-62
2023/03/21 03:14:26;;;;;;;5.88;2.80;;;;;;;;;;5093031;28;20028;-63
2023/03/21 03:17:01;;;;;;;5.80;2.63;;;;;;;;;;5093013;28;20660;-62
2023/03/21 03:19:29;;;;;;;5.60;2.47;;;;;;;;;;5092691;28;20020;-62
2023/03/21 03:21:58;;;;;;;5.32;2.83;;;;;;;;;;5092580;28;20035;-62
2023/03/21 03:24:30;;;;;;;5.15;3.03;;;;;;;;;;5093427;28;20422;-62
2023/03/21 03:26:59;;;;;;;4.55;2.40;;;;;;;;;;5113110;28;20049;-62
2023/03/21 03:29:26;;;;;;;5.20;2.67;;;;;;;;;;5113002;28;20050;-63
2023/03/21 03:31:56;;;;;;;4.88;2.35;;;;;;;;;;5112956;28;20103;-62
2023/03/21 03:34:25;;;;;;;4.80;2.50;;;;;;;;;;5112912;28;20433;-62
2023/03/21 03:36:55;;;;;;;6.78;2.80;;;;;;;;;;5112575;28;20564;-61
2023/03/21 03:39:22;;;;;;;5.30;2.20;;;;;;;;;;5112355;28;20041;-62
2023/03/21 03:41:52;;;;;;;4.70;2.70;;;;;;;;;;5113032;28;20024;-62
2023/03/21 03:44:18;;;;;;;5.43;2.65;;;;;;;;;;5113184;28;20096;-62
2023/03/21 03:46:47;;;;;;;4.65;2.67;;;;;;;;;;5112938;28;20019;-62
2023/03/21 03:49:24;;;;;;;5.07;2.45;;;;;;;;;;5112621;28;20034;-62
2023/03/21 03:52:00;;;;;;;4.70;2.40;;;;;;;;;;5112687;28;20092;-62
2023/03/21 03:54:52;;;;;;;4.93;2.17;;;;;;;;;;5111960;28;20084;-62
2023/03/21 03:57:18;;;;;;;6.10;2.78;;;;;;;;;;5110007;28;20180;-62
2023/03/21 03:59:45;;;;;;;7.38;2.75;;;;;;;;;;5112694;28;20519;-62
2023/03/21 04:02:12;;;;;;;4.20;2.53;;;;;;;;;;5110938;28;20468;-62
2023/03/21 04:04:38;;;;;;;7.20;3.10;;;;;;;;;;5111929;28;20020;-61
2023/03/21 04:07:05;;;;;;;6.28;2.60;;;;;;;;;;5112348;28;20107;-62
2023/03/21 04:09:32;;;;;;;5.22;2.35;;;;;;;;;;5095508;28;20466;-61
2023/03/21 04:11:58;;;;;;;5.22;2.40;;;;;;;;;;5091647;28;20074;-62
2023/03/21 04:14:24;;;;;;;7.70;2.83;;;;;;;;;;5091591;28;20052;-61
2023/03/21 04:16:51;;;;;;;5.07;3.00;;;;;;;;;;5091799;28;20036;-61
2023/03/21 04:19:17;;;;;;;7.15;3.22;;;;;;;;;;5091910;28;20095;-61
2023/03/21 04:21:43;;;;;;;8.45;3.63;;;;;;;;;;5091306;28;20031;-62
2023/03/21 04:24:10;;;;;;;5.35;2.80;;;;;;;;;;5091323;28;20028;-61
2023/03/21 04:26:38;;;;;;;4.72;2.85;;;;;;;;;;5091284;28;20571;-62
2023/03/21 04:29:04;;;;;;;7.25;3.42;;;;;;;;;;5091820;28;20028;-59
2023/03/21 04:31:32;;;;;;;4.72;2.72;;;;;;;;;;5091412;28;20019;-60
2023/03/21 04:33:58;;;;;;;4.20;2.60;;;;;;;;;;5091401;28;20502;-61
2023/03/21 04:36:27;;;;;;;4.55;2.60;;;;;;;;;;5091260;28;20032;-61
2023/03/21 04:38:53;;;;;;;6.55;2.67;;;;;;;;;;5091065;28;20020;-62
2023/03/21 04:41:20;;;;;;;5.28;2.92;;;;;;;;;;5091102;28;20035;-61
2023/03/21 04:43:46;;;;;;;7.05;3.03;;;;;;;;;;5091650;28;20081;-62
2023/03/21 04:46:12;;;;;;;3.67;2.47;;;;;;;;;;5091223;28;20391;-62
2023/03/21 04:48:38;;;;;;;6.35;2.80;;;;;;;;;;5090997;28;20016;-62
2023/03/21 04:51:04;;;;;;;4.43;2.70;;;;;;;;;;5091092;28;20141;-62
2023/03/21 04:53:30;;;;;;;6.82;3.05;;;;;;;;;;5104008;28;20019;-62
2023/03/21 04:55:56;;;;;;;3.72;2.60;;;;;;;;;;5111647;28;20032;-62
2023/03/21 04:58:22;;;;;;;5.90;2.85;;;;;;;;;;5111393;28;20431;-62
2023/03/21 05:00:51;;;;;;;4.53;2.75;;;;;;;;;;5111641;28;20028;-62
2023/03/21 05:03:20;;;;;;;4.90;2.80;;;;;;;;;;5111785;28;20364;-62
2023/03/21 05:05:46;;;;;;;4.93;2.90;;;;;;;;;;5111537;28;20076;-62
2023/03/21 05:08:13;;;;;;;4.97;2.67;;;;;;;;;;5110722;28;20028;-62
2023/03/21 05:10:39;;;;;;;6.55;2.80;;;;;;;;;;5111024;28;20134;-62
2023/03/21 05:13:05;;;;;;;6.53;2.70;;;;;;;;;;5111307;28;20020;-62
2023/03/21 05:15:31;;;;;;;4.85;2.72;;;;;;;;;;5111190;28;20031;-63
2023/03/21 05:17:57;;;;;;;5.78;3.33;;;;;;;;;;5111478;28;20077;-62
2023/03/21 05:20:24;;;;;;;4.45;2.85;;;;;;;;;;5111082;28;20491;-62
2023/03/21 05:22:50;;;;;;;4.68;2.88;;;;;;;;;;5098671;28;20078;-62
2023/03/21 05:25:19;;;;;;;4.38;2.83;;;;;;;;;;5091376;28;20039;-62
2023/03/21 05:27:52;;;;;;;5.40;3.05;;;;;;;;;;5091293;28;20028;-62
2023/03/21 05:30:19;;;;;;;6.20;3.28;;;;;;;;;;5091082;28;20035;-63
2023/03/21 05:32:45;;;;;;;6.50;3.38;;;;;;;;;;5094023;28;20028;-63
2023/03/21 05:35:11;;;;;;;5.78;2.95;;;;;;;;;;5094779;28;20502;-62
2023/03/21 05:37:37;;;;;;;6.38;3.15;;;;;;;;;;5094442;28;20103;-62
2023/03/21 05:40:05;;;;;;;5.75;3.15;;;;;;;;;;5094800;28;20024;-62
2023/03/21 05:42:31;;;;;;;5.80;3.10;;;;;;;;;;5093497;28;20051;-61
2023/03/21 05:44:57;;;;;;;5.75;2.92;;;;;;;;;;5093585;28;20023;-62
2023/03/21 05:47:23;;;;;;;5.22;2.75;;;;;;;;;;5094417;28;20391;-61
2023/03/21 05:49:49;;;;;;;6.78;3.05;;;;;;;;;;5094441;28;20024;-62
2023/03/21 05:52:15;;;;;;;7.05;3.03;;;;;;;;;;5094738;28;20063;-62
2023/03/21 05:54:41;;;;;;;5.53;2.65;;;;;;;;;;5094132;28;20522;-62
2023/03/21 05:57:08;;;;;;;6.18;2.88;;;;;;;;;;5094477;28;20036;-62
2023/03/21 05:59:34;;;;;;;5.80;2.83;;;;;;;;;;5094100;28;20017;-62
2023/03/21 06:02:00;;;;;;;5.10;3.13;;;;;;;;;;5093926;28;20510;-61
2023/03/21 06:04:26;;;;;;;5.45;3.17;;;;;;;;;;5094071;28;20428;-61
2023/03/21 06:06:52;;;;;;;5.10;2.55;;;;;;;;;;5111684;28;20028;-61
2023/03/21 06:09:19;;;;;;;7.00;3.28;;;;;;;;;;5114953;27;20032;-61
2023/03/21 06:11:50;;;;;;;5.93;2.78;;;;;;;;;;5098505;28;20500;-61
2023/03/21 06:14:17;;;;;;;6.03;2.83;;;;;;;;;;5094487;28;20024;-61
2023/03/21 06:16:43;;;;;;;5.50;2.58;;;;;;;;;;5094650;28;20116;-62
2023/03/21 06:19:09;;;;;;;5.97;2.55;;;;;;;;;;5094147;28;20039;-61
2023/03/21 06:21:35;;;;;;;5.57;3.00;;;;;;;;;;5093826;28;20112;-61
2023/03/21 06:24:02;;;;;;;4.28;2.70;;;;;;;;;;5094463;28;20169;-62
2023/03/21 06:26:28;;;;;;;5.53;2.85;;;;;;;;;;5073479;28;20029;-61
2023/03/21 06:28:54;;;;;;;4.82;2.60;;;;;;;;;;5077881;28;20028;-61
2023/03/21 06:31:21;;;;;;;4.30;2.30;;;;;;;;;;5094830;28;20035;-62
2023/03/21 06:33:47;;;;;;;5.53;3.17;;;;;;;;;;5101747;28;20113;-60
2023/03/21 06:36:14;;;;;;;5.45;2.88;;;;;;;;;;5093926;28;20391;-60
2023/03/21 06:38:40;;;;;;;5.05;2.88;;;;;;;;;;5093283;28;20024;-61
2023/03/21 06:41:06;;;;;;;5.50;2.70;;;;;;;;;;5093261;28;20369;-63
2023/03/21 06:43:33;;;;;;;5.05;2.72;;;;;;;;;;5093364;28;20024;-64
2023/03/21 06:45:59;;;;;;;5.88;3.38;;;;;;;;;;5092729;28;20369;-63
2023/03/21 06:48:26;;;;;;;4.88;2.65;;;;;;;;;;5092637;28;20472;-63
2023/03/21 06:50:52;;;;;;;7.05;2.75;;;;;;;;;;5097596;28;20107;-63
2023/03/21 06:53:23;;;;;;;5.22;2.50;;;;;;;;;;5093632;28;20035;-61
2023/03/21 06:55:50;;;;;;;10.65;3.05;;;;;;;;;;5101451;28;20028;-62
2023/03/21 06:58:16;;;;;;;5.53;2.95;;;;;;;;;;5093879;28;20024;-63
2023/03/21 07:00:42;;;;;;;7.95;3.45;;;;;;;;;;5092215;28;20055;-61
2023/03/21 07:03:08;;;;;;;4.95;2.50;;;;;;;;;;5092956;28;20027;-62
2023/03/21 07:05:38;;;;;;;7.45;4.20;;;;;;;;;;5093057;28;20020;-62
2023/03/21 07:08:04;;;;;;;8.63;5.38;;;;;;;;;;5101803;28;20032;-62
2023/03/21 07:10:30;;;;;;;7.78;5.00;;;;;;;;;;5094667;28;20091;-62
2023/03/21 07:12:58;;;;;;;9.93;6.07;;;;;;;;;;5092783;28;20052;-62
2023/03/21 07:15:23;;;;;;;10.52;5.85;;;;;;;;;;5092602;28;20415;-61
2023/03/21 07:17:49;;;;;;;9.05;5.70;;;;;;;;;;5093107;28;20024;-62
2023/03/21 07:20:16;;;;;;;12.65;5.47;;;;;;;;;;5100737;28;20031;-62
2023/03/21 07:22:42;;;;;;;7.60;5.22;;;;;;;;;;5111635;28;20034;-62
2023/03/21 07:25:08;;;;;;;11.20;6.35;;;;;;;;;;5093692;28;20032;-62
2023/03/21 07:27:34;;;;;;;13.63;5.80;;;;;;;;;;5092266;28;20029;-62
2023/03/21 07:30:00;;;;;;;9.68;5.68;;;;;;;;;;5092735;28;20020;-63
2023/03/21 07:32:28;;;;;;;9.63;6.05;;;;;;;;;;5092346;28;20025;-63
2023/03/21 07:34:54;;;;;;;9.95;5.43;;;;;;;;;;5092398;28;20020;-62
2023/03/21 07:37:20;;;;;;;11.02;5.38;;;;;;;;;;5090727;28;20024;-62
2023/03/21 07:39:46;;;;;;;10.93;5.13;;;;;;;;;;5091160;28;20035;-62
2023/03/21 07:42:12;;;;;;;8.88;4.95;;;;;;;;;;5090784;28;20448;-60
2023/03/21 07:44:38;;;;;;;6.82;4.40;;;;;;;;;;5091279;28;20080;-62
2023/03/21 07:47:06;;;;;;;10.20;4.95;;;;;;;;;;5098463;28;20023;-62
2023/03/21 07:49:32;;;;;;;11.68;5.40;;;;;;;;;;5104635;28;20043;-62
2023/03/21 07:51:58;;;;;;;10.77;5.25;;;;;;;;;;5091329;28;20391;-63
2023/03/21 07:54:24;;;;;;;9.05;4.40;;;;;;;;;;5091595;28;20024;-63
2023/03/21 07:56:50;;;;;;;5.65;4.45;;;;;;;;;;5092167;28;20388;-61
2023/03/21 07:59:16;;;;;;;7.20;4.63;;;;;;;;;;5092466;28;20032;-62
2023/03/21 08:01:42;;;;;;;7.38;4.55;;;;;;;;;;5106090;28;20039;-62
2023/03/21 08:04:08;;;;;;;10.57;3.88;;;;;;;;;;5110991;28;20020;-62
2023/03/21 08:06:34;;;;;;;8.63;4.65;;;;;;;;;;5109647;28;20032;-62
2023/03/21 08:09:02;;;;;;;9.05;4.20;;;;;;;;;;5110991;28;20191;-62
2023/03/21 08:11:30;;;;;;;8.63;4.57;;;;;;;;;;5109931;28;20043;-63
2023/03/21 08:13:56;;;;;;;9.20;4.55;;;;;;;;;;5110468;28;20152;-63
2023/03/21 08:16:22;;;;;;;7.03;4.38;;;;;;;;;;5109975;28;20396;-63
2023/03/21 08:18:48;;;;;;;8.98;4.30;;;;;;;;;;5110539;28;20041;-62
2023/03/21 08:21:14;;;;;;;7.20;4.10;;;;;;;;;;5098226;28;20035;-63
2023/03/21 08:23:40;;;;;;;9.35;4.32;;;;;;;;;;5089753;28;20428;-62
2023/03/21 08:26:08;;;;;;;6.65;4.00;;;;;;;;;;5091367;28;20024;-62
2023/03/21 08:28:35;;;;;;;9.63;4.35;;;;;;;;;;5091637;28;20028;-62
2023/03/21 08:31:06;;;;;;;8.23;3.95;;;;;;;;;;5091734;28;20066;-62
2023/03/21 08:33:32;;;;;;;9.73;4.00;;;;;;;;;;5091446;28;20039;-62
2023/03/21 08:35:59;;;;;;;9.35;4.20;;;;;;;;;;5091246;28;20040;-62
2023/03/21 08:38:28;;;;;;;6.32;3.58;;;;;;;;;;5091287;28;20428;-62
2023/03/21 08:40:54;;;;;;;7.20;4.05;;;;;;;;;;5091686;28;20039;-62
2023/03/21 08:43:20;;;;;;;6.70;3.78;;;;;;;;;;5091318;28;20020;-62
2023/03/21 08:45:46;;;;;;;7.70;4.20;;;;;;;;;;5091857;28;20024;-63
2023/03/21 08:48:12;;;;;;;6.68;3.55;;;;;;;;;;5091485;28;20031;-62
2023/03/21 08:50:38;;;;;;;6.03;3.22;;;;;;;;;;5090889;28;20140;-62
2023/03/21 08:53:04;;;;;;;6.70;3.45;;;;;;;;;;5091368;28;20480;-62
2023/03/21 08:55:31;;;;;;;5.25;3.28;;;;;;;;;;5091087;28;20028;-62
2023/03/21 08:57:58;;;;;;;5.25;3.30;;;;;;;;;;5090140;28;20028;-62
2023/03/21 09:00:24;;;;;;;7.38;3.70;;;;;;;;;;5091123;28;20028;-62
2023/03/21 09:02:51;;;;;;;5.55;3.28;;;;;;;;;;5091345;28;20026;-62
2023/03/21 09:05:17;;;;;;;6.72;3.25;;;;;;;;;;5109107;28;20567;-62
2023/03/21 09:07:44;;;;;;;8.50;3.20;;;;;;;;;;5114331;28;20437;-62
2023/03/21 09:10:11;;;;;;;7.88;3.55;;;;;;;;;;5115840;28;20429;-62
2023/03/21 09:12:37;;;;;;;5.95;3.28;;;;;;;;;;5115650;28;20028;-62
2023/03/21 09:15:04;;;;;;;6.90;4.05;;;;;;;;;;5115657;28;20421;-62
2023/03/21 09:17:31;;;;;;;9.30;3.60;;;;;;;;;;5115431;28;20077;-64
2023/03/21 09:19:59;;;;;;;4.68;2.70;;;;;;;;;;5113664;28;20119;-62
2023/03/21 09:22:26;;;;;;;6.40;3.15;;;;;;;;;;5115400;28;20042;-63
2023/03/21 09:24:52;;;;;;;7.05;3.67;;;;;;;;;;5115549;28;20039;-62
2023/03/21 09:27:21;;;;;;;8.32;3.78;;;;;;;;;;5114441;28;20023;-62
2023/03/21 09:29:47;;;;;;;5.80;3.00;;;;;;;;;;5115654;28;20016;-63
2023/03/21 09:32:14;;;;;;;6.25;2.75;;;;;;;;;;5115435;28;20471;-62
2023/03/21 09:34:40;;;;;;;5.45;3.40;;;;;;;;;;5114500;28;20023;-62
2023/03/21 09:37:12;;;;;;;5.50;2.80;;;;;;;;;;5115499;28;20031;-62
2023/03/21 09:39:39;;;;;;;6.70;3.10;;;;;;;;;;5114908;27;20028;-62
2023/03/21 09:42:10;;;;;;;6.10;3.25;;;;;;;;;;5115264;28;20020;-62
2023/03/21 09:44:55;;;;;;;4.65;2.80;;;;;;;;;;5115104;28;20024;-62
2023/03/21 09:47:27;;;;;;;5.68;3.22;;;;;;;;;;5108302;28;20051;-63
2023/03/21 09:49:53;;;;;;;6.80;3.20;;;;;;;;;;5095219;28;20357;-62
2023/03/21 09:52:25;;;;;;;4.32;2.55;;;;;;;;;;5094513;28;20040;-62
2023/03/21 09:54:52;;;;;;;7.38;3.80;;;;;;;;;;5094475;28;20028;-62
2023/03/21 09:57:22;;;;;;;6.28;3.13;;;;;;;;;;5094951;28;20039;-63
2023/03/21 09:59:52;;;;;;;6.97;3.20;;;;;;;;;;5094814;28;20431;-62
2023/03/21 10:02:31;;;;;;;6.18;2.95;;;;;;;;;;5094953;28;20028;-62
2023/03/21 10:04:57;;;;;;;6.25;2.55;;;;;;;;;;5094542;28;20365;-62
2023/03/21 10:07:23;;;;;;;4.80;3.00;;;;;;;;;;5094123;28;20028;-62
2023/03/21 10:09:51;;;;;;;3.88;2.50;;;;;;;;;;5094448;28;20025;-62
2023/03/21 10:12:21;;;;;;;4.55;2.45;;;;;;;;;;5094117;28;20102;-62
2023/03/21 10:14:48;;;;;;;5.43;2.90;;;;;;;;;;5094571;28;20024;-62
2023/03/21 10:17:17;;;;;;;5.95;2.70;;;;;;;;;;5103543;28;20106;-62
2023/03/21 10:19:45;;;;;;;4.47;2.78;;;;;;;;;;5113973;28;20076;-62
2023/03/21 10:22:11;;;;;;;5.13;2.67;;;;;;;;;;5114498;28;20039;-61
2023/03/21 10:24:37;;;;;;;3.72;2.55;;;;;;;;;;5114184;28;20049;-61
2023/03/21 10:27:04;;;;;;;4.80;2.70;;;;;;;;;;5114471;28;20024;-61
2023/03/21 10:29:35;;;;;;;6.68;2.70;;;;;;;;;;5114150;28;20035;-62
2023/03/21 10:32:02;;;;;;;4.20;2.50;;;;;;;;;;5114225;28;20091;-61
2023/03/21 10:34:31;;;;;;;5.40;2.85;;;;;;;;;;5096096;28;20039;-62
2023/03/21 10:36:59;;;;;;;3.92;2.40;;;;;;;;;;5093691;28;20032;-61
2023/03/21 10:39:27;;;;;;;6.65;2.85;;;;;;;;;;5093507;28;20035;-61
2023/03/21 10:41:53;;;;;;;4.43;2.30;;;;;;;;;;5093827;28;20020;-61
2023/03/21 10:44:20;;;;;;;6.50;2.97;;;;;;;;;;5093552;28;20032;-62
2023/03/21 10:47:05;;;;;;;6.28;2.72;;;;;;;;;;5093906;28;20496;-63
2023/03/21 10:49:31;;;;;;;5.20;3.47;;;;;;;;;;5093316;28;20031;-62
2023/03/21 10:51:59;;;;;;;6.55;3.03;;;;;;;;;;5093712;28;20036;-62
2023/03/21 10:54:29;;;;;;;3.70;2.20;;;;;;;;;;5093339;28;20103;-62
2023/03/21 10:57:02;;;;;;;9.23;3.30;;;;;;;;;;5093424;28;20031;-62
2023/03/21 10:59:33;;;;;;;3.88;2.38;;;;;;;;;;5093324;28;20153;-62
2023/03/21 11:01:59;;;;;;;4.88;2.47;;;;;;;;;;5093207;28;20038;-62
2023/03/21 11:04:27;;;;;;;4.40;2.45;;;;;;;;;;5093084;28;20012;-61
2023/03/21 11:07:13;;;;;;;4.38;2.10;;;;;;;;;;5093087;28;20047;-61
2023/03/21 11:09:49;;;;;;;6.85;2.40;;;;;;;;;;5092731;28;20500;-62
2023/03/21 11:12:17;;;;;;;4.65;2.50;;;;;;;;;;5093439;28;20036;-62
2023/03/21 11:14:45;;;;;;;5.25;2.30;;;;;;;;;;5092780;28;20051;-62
2023/03/21 11:17:17;;;;;;;4.30;2.58;;;;;;;;;;5104875;28;20392;-61
2023/03/21 11:19:59;;;;;;;6.10;2.17;;;;;;;;;;5113229;28;20051;-61
2023/03/21 11:22:30;;;;;;;4.82;2.08;;;;;;;;;;5113099;28;20059;-61
2023/03/21 11:24:58;;;;;;;4.20;2.45;;;;;;;;;;5113158;28;20028;-61
2023/03/21 11:27:28;;;;;;;5.15;2.38;;;;;;;;;;5112952;28;20020;-61
2023/03/21 11:29:54;;;;;;;5.95;2.22;;;;;;;;;;5112267;28;20547;-61
2023/03/21 11:32:30;;;;;;;6.35;2.78;;;;;;;;;;5112527;28;20034;-62
2023/03/21 11:35:02;;;;;;;6.35;2.78;;;;;;;;;;5113116;28;20540;-61
2023/03/21 11:37:31;;;;;;;3.88;2.40;;;;;;;;;;5112854;28;20503;-62
2023/03/21 11:40:18;;;;;;;4.75;2.25;;;;;;;;;;5112977;27;20062;-62
2023/03/21 11:42:46;;;;;;;4.47;2.45;;;;;;;;;;5112824;28;20555;-62
2023/03/21 11:45:20;;;;;;;5.18;2.10;;;;;;;;;;5112427;28;20027;-61
2023/03/21 11:47:48;;;;;;;5.80;2.80;;;;;;;;;;5113110;28;20059;-61
2023/03/21 11:50:14;;;;;;;6.53;2.20;;;;;;;;;;5113075;28;20475;-62
2023/03/21 11:52:49;;;;;;;5.03;2.28;;;;;;;;;;5112457;28;20032;-62
2023/03/21 11:55:15;;;;;;;5.47;2.67;;;;;;;;;;5112899;28;20030;-61
2023/03/21 11:57:41;;;;;;;4.05;2.25;;;;;;;;;;5112469;28;20031;-62
2023/03/21 12:00:16;;;;;;;4.75;2.22;;;;;;;;;;5110911;28;20015;-62
2023/03/21 12:03:01;;;;;;;3.45;1.95;;;;;;;;;;5091923;28;20023;-62
2023/03/21 12:05:34;;;;;;;4.97;2.25;;;;;;;;;;5092014;28;20032;-62
2023/03/21 12:08:06;;;;;;;6.13;2.30;;;;;;;;;;5092123;28;20024;-62
2023/03/21 12:10:40;;;;;;;4.65;2.45;;;;;;;;;;5091695;28;20038;-61
2023/03/21 12:13:18;;;;;;;5.28;2.45;;;;;;;;;;5092014;28;20020;-61
2023/03/21 12:15:53;;;;;;;5.90;2.63;;;;;;;;;;5091738;28;20164;-61
2023/03/21 12:18:34;;;;;;;3.92;2.17;;;;;;;;;;5092074;28;20032;-61
2023/03/21 12:21:45;;;;;;;3.97;2.13;;;;;;;;;;5088775;28;20439;-61
2023/03/21 12:24:15;;;;;;;3.17;1.67;;;;;;;;;;5082782;28;20042;-62
2023/03/21 12:26:43;;;;;;;4.35;2.10;;;;;;;;;;5088110;28;20051;-62
2023/03/21 12:29:09;;;;;;;3.95;2.15;;;;;;;;;;5088558;28;20063;-61
2023/03/21 12:31:56;;;;;;;3.42;2.13;;;;;;;;;;5088241;28;20039;-61
2023/03/21 12:34:28;;;;;;;4.07;1.75;;;;;;;;;;5077176;28;20040;-61
2023/03/21 12:36:57;;;;;;;5.57;2.22;;;;;;;;;;5088494;28;20054;-61
2023/03/21 12:39:32;;;;;;;3.75;2.33;;;;;;;;;;5088164;28;20078;-61
2023/03/21 12:42:13;;;;;;;4.28;2.33;;;;;;;;;;5087774;28;20078;-61
2023/03/21 12:44:43;;;;;;;4.47;2.38;;;;;;;;;;5088196;28;20074;-61
2023/03/21 12:47:12;;;;;;;3.58;2.08;;;;;;;;;;5088316;28;20480;-62
2023/03/21 12:49:46;;;;;;;3.63;2.25;;;;;;;;;;5088030;28;20047;-61
2023/03/21 12:52:16;;;;;;;3.70;2.17;;;;;;;;;;5088201;28;20528;-61
2023/03/21 12:54:46;;;;;;;4.63;2.33;;;;;;;;;;5087788;28;20024;-61
2023/03/21 12:57:17;;;;;;;4.75;2.40;;;;;;;;;;5087700;28;20381;-61
2023/03/21 12:59:48;;;;;;;4.60;2.25;;;;;;;;;;5087643;28;20036;-62
2023/03/21 13:02:17;;;;;;;3.35;1.77;;;;;;;;;;5088210;28;20077;-61
2023/03/21 13:04:45;;;;;;;3.83;2.15;;;;;;;;;;5087732;28;20023;-62
2023/03/21 13:07:16;;;;;;;4.50;2.00;;;;;;;;;;5087789;28;20029;-61
2023/03/21 13:09:42;;;;;;;3.88;2.10;;;;;;;;;;5087342;28;20048;-61
2023/03/21 13:12:28;;;;;;;3.35;1.77;;;;;;;;;;5087388;28;20024;-61
2023/03/21 13:15:00;;;;;;;2.65;1.70;;;;;;;;;;5076474;28;20036;-61
2023/03/21 13:17:36;;;;;;;3.53;2.00;;;;;;;;;;5087400;28;20401;-61
2023/03/21 13:20:14;;;;;;;3.42;2.15;;;;;;;;;;5087038;28;20043;-61
2023/03/21 13:22:40;;;;;;;2.13;1.60;;;;;;;;;;5086998;28;20115;-61
2023/03/21 13:25:16;;;;;;;4.18;1.90;;;;;;;;;;5087415;28;20512;-61
2023/03/21 13:27:46;;;;;;;3.20;1.88;;;;;;;;;;5086980;28;20025;-61
2023/03/21 13:30:14;;;;;;;3.35;1.65;;;;;;;;;;5087170;28;20023;-61
2023/03/21 13:32:42;;;;;;;3.22;2.13;;;;;;;;;;5073504;28;20036;-61
2023/03/21 13:35:08;;;;;;;6.28;2.08;;;;;;;;;;5073933;28;20029;-61
2023/03/21 13:37:38;;;;;;;4.25;1.85;;;;;;;;;;5073682;28;20107;-61
2023/03/21 13:40:09;;;;;;;3.58;1.73;;;;;;;;;;5073711;28;20040;-61
2023/03/21 13:42:42;;;;;;;2.70;1.60;;;;;;;;;;5073474;28;20365;-61
2023/03/21 13:45:09;;;;;;;3.55;1.65;;;;;;;;;;5073677;28;20024;-61
2023/03/21 13:47:41;;;;;;;2.95;1.80;;;;;;;;;;5073213;28;20021;-62
2023/03/21 13:50:22;;;;;;;3.60;1.88;;;;;;;;;;5073621;28;20032;-61
2023/03/21 13:53:07;;;;;;;3.38;1.73;;;;;;;;;;5073844;28;20036;-61
2023/03/21 13:55:41;;;;;;;2.85;1.63;;;;;;;;;;5073260;28;20029;-62
2023/03/21 13:58:22;;;;;;;2.58;1.52;;;;;;;;;;5073518;28;20085;-61
2023/03/21 14:01:04;;;;;;;2.78;1.60;;;;;;;;;;5073631;28;20606;-61
2023/03/21 14:03:33;;;;;;;3.10;1.55;;;;;;;;;;5072530;28;20028;-62
2023/03/21 14:06:00;;;;;;;2.38;1.50;;;;;;;;;;5073410;28;20393;-62
2023/03/21 14:08:30;;;;;;;3.08;1.83;;;;;;;;;;5073075;28;20104;-62
2023/03/21 14:10:58;;;;;;;2.67;1.23;;;;;;;;;;5072964;28;20103;-62
2023/03/21 14:13:26;;;;;;;3.35;1.67;;;;;;;;;;5072914;28;20036;-61
2023/03/21 14:15:53;;;;;;;3.30;1.67;;;;;;;;;;5073433;28;20365;-61
2023/03/21 14:18:20;;;;;;;2.70;1.48;;;;;;;;;;5072698;28;20028;-61
2023/03/21 14:20:51;;;;;;;5.47;1.70;;;;;;;;;;5071983;28;20150;-61
2023/03/21 14:23:17;;;;;;;3.00;1.38;;;;;;;;;;5073322;28;20409;-61
2023/03/21 14:25:45;;;;;;;2.45;1.33;;;;;;;;;;5072656;28;20036;-62
2023/03/21 14:28:16;;;;;;;4.40;1.65;;;;;;;;;;5072875;28;20091;-62
2023/03/21 14:30:44;;;;;;;4.13;1.92;;;;;;;;;;5072620;28;20514;-62
2023/03/21 14:33:16;;;;;;;2.50;1.42;;;;;;;;;;5072651;28;20123;-61
2023/03/21 14:35:42;;;;;;;2.97;1.50;;;;;;;;;;5072582;28;20021;-61
2023/03/21 14:38:18;;;;;;;2.13;1.30;;;;;;;;;;5072692;28;20024;-61
2023/03/21 14:40:48;;;;;;;3.00;1.23;;;;;;;;;;5072917;28;20044;-62
2023/03/21 14:43:14;;;;;;;5.20;1.90;;;;;;;;;;5072052;28;20042;-61
2023/03/21 14:45:40;;;;;;;2.83;1.48;;;;;;;;;;5072022;28;20074;-61
2023/03/21 14:48:13;;;;;;;3.85;1.73;;;;;;;;;;5072528;28;20027;-61
2023/03/21 14:50:45;;;;;;;2.22;1.20;;;;;;;;;;5072134;28;20196;-61
2023/03/21 14:53:14;;;;;;;4.25;1.58;;;;;;;;;;5072451;28;20025;-61
2023/03/21 14:55:45;;;;;;;3.58;1.55;;;;;;;;;;5071951;28;20054;-61
2023/03/21 14:58:12;;;;;;;3.35;1.45;;;;;;;;;;5072201;28;20020;-61